createdAt,value
2022-10-17T03:43:54.491Z,7.25
2022-10-17T03:46:58.275Z,7.25
2022-10-17T03:50:01.180Z,7.15
2022-10-17T03:53:05.342Z,7.10
2022-10-17T03:56:14.478Z,6.50
2022-10-17T03:59:17.463Z,6.03
2022-10-17T04:02:20.506Z,7.43
2022-10-17T04:05:24.534Z,11.38
2022-10-17T04:08:27.630Z,9.93
2022-10-17T04:11:32.732Z,7.45
2022-10-17T04:14:36.421Z,6.40
2022-10-17T04:17:39.292Z,9.60
2022-10-17T04:20:41.832Z,7.30
2022-10-17T04:23:44.776Z,6.78
2022-10-17T04:26:50.306Z,10.35
2022-10-17T04:29:54.672Z,8.82
2022-10-17T04:32:58.355Z,7.37
2022-10-17T04:36:06.094Z,12.77
2022-10-17T04:39:08.901Z,6.45
2022-10-17T04:42:11.819Z,9.90
2022-10-17T04:45:15.945Z,6.78
2022-10-17T04:51:24.443Z,9.68
2022-10-17T04:54:31.298Z,9.68
2022-10-17T05:00:39.116Z,6.03
2022-10-17T05:03:42.487Z,8.90
2022-10-17T05:06:45.391Z,7.93
2022-10-17T05:09:48.979Z,6.62
2022-10-17T05:12:52.587Z,6.22
2022-10-17T05:16:02.629Z,6.28
2022-10-17T05:19:06.328Z,5.62
2022-10-17T05:22:09.595Z,7.93
2022-10-17T05:25:12.527Z,8.13
2022-10-17T05:28:15.010Z,5.68
2022-10-17T05:31:18.331Z,7.25
2022-10-17T05:34:21.108Z,6.47
2022-10-17T05:37:24.094Z,9.88
2022-10-17T05:40:27.170Z,10.05
2022-10-17T05:43:30.320Z,5.53
2022-10-17T05:46:33.305Z,7.90
2022-10-17T05:49:52.510Z,13.65
2022-10-17T05:52:55.825Z,7.82
2022-10-17T05:56:00.570Z,6.97
2022-10-17T05:59:03.284Z,6.93
2022-10-17T06:02:06.774Z,12.05
2022-10-17T06:05:10.488Z,8.52
2022-10-17T06:08:13.205Z,7.43
2022-10-17T06:11:16.159Z,7.93
2022-10-17T06:14:18.890Z,8.82
2022-10-17T06:17:23.674Z,8.95
2022-10-17T06:20:26.484Z,8.05
2022-10-17T06:23:30.345Z,10.38
2022-10-17T06:26:34.036Z,12.68
2022-10-17T06:29:36.757Z,18.98
2022-10-17T06:32:39.412Z,17.35
2022-10-17T06:35:42.233Z,10.80
2022-10-17T06:38:44.820Z,12.63
2022-10-17T06:41:48.359Z,11.43
2022-10-17T06:44:53.206Z,8.05
2022-10-17T06:47:56.560Z,7.97
2022-10-17T06:51:02.225Z,8.45
2022-10-17T06:54:05.174Z,7.62
2022-10-17T06:57:08.891Z,8.45
2022-10-17T07:00:12.472Z,9.85
2022-10-17T07:03:15.339Z,10.20
2022-10-17T07:06:19.138Z,10.32
2022-10-17T07:09:22.991Z,7.68
2022-10-17T07:12:26.442Z,11.07
2022-10-17T07:18:31.660Z,9.52
2022-10-17T07:21:36.727Z,9.98
2022-10-17T07:24:42.406Z,8.65
2022-10-17T07:27:49.154Z,10.40
2022-10-17T07:30:54.474Z,8.48
2022-10-17T07:33:59.633Z,10.40
2022-10-17T07:37:03.480Z,12.35
2022-10-17T07:43:09.980Z,7.85
2022-10-17T07:46:13.059Z,7.72
2022-10-17T07:49:16.393Z,8.85
2022-10-17T07:52:18.974Z,13.02
2022-10-17T07:55:21.796Z,9.98
2022-10-17T07:58:25.690Z,11.25
2022-10-17T08:01:28.965Z,11.75
2022-10-17T08:07:34.278Z,11.38
2022-10-17T08:10:37.227Z,8.35
2022-10-17T08:13:40.447Z,9.60
2022-10-17T08:16:44.505Z,9.65
2022-10-17T08:19:47.118Z,12.95
2022-10-17T08:22:54.146Z,9.35
2022-10-17T08:26:00.757Z,10.70
2022-10-17T08:29:04.545Z,9.82
2022-10-17T08:32:10.005Z,11.60
2022-10-17T08:35:14.728Z,20.42
2022-10-17T08:38:20.827Z,14.30
2022-10-17T08:41:51.202Z,16.10
2022-10-17T08:44:56.658Z,20.92
2022-10-17T08:48:11.092Z,10.02
2022-10-17T08:51:24.995Z,19.37
2022-10-17T08:54:42.008Z,8.73
2022-10-17T08:57:44.711Z,12.60
2022-10-17T09:04:37.888Z,13.55
2022-10-17T09:07:43.187Z,14.25
2022-10-17T09:10:57.347Z,9.85
2022-10-17T09:14:18.189Z,11.10
2022-10-17T09:17:31.206Z,11.68
2022-10-17T09:20:42.899Z,12.57
2022-10-17T09:23:53.229Z,8.98
2022-10-17T09:27:03.461Z,8.48
2022-10-17T09:30:44.021Z,12.37
2022-10-17T09:33:54.353Z,8.07
2022-10-17T09:37:00.030Z,7.55
2022-10-17T09:40:06.825Z,8.77
2022-10-17T09:43:13.756Z,10.60
2022-10-17T09:46:29.092Z,5.45
2022-10-17T09:49:37.827Z,8.18
2022-10-17T09:52:47.760Z,5.82
2022-10-17T09:55:56.159Z,6.05
2022-10-17T09:58:59.305Z,6.15
2022-10-17T10:05:31.469Z,7.12
2022-10-17T10:08:49.669Z,4.40
2022-10-17T10:11:55.683Z,3.95
2022-10-17T10:14:58.651Z,3.83
2022-10-17T10:18:01.489Z,5.03
2022-10-17T10:21:17.223Z,4.62
2022-10-17T10:24:20.326Z,5.05
2022-10-17T10:27:23.886Z,3.67
2022-10-17T10:30:30.396Z,5.75
2022-10-17T10:33:40.447Z,4.95
2022-10-17T10:36:55.715Z,3.72
2022-10-17T10:40:03.754Z,7.55
2022-10-17T10:43:07.464Z,4.32
2022-10-17T10:46:18.173Z,4.18
2022-10-17T10:49:32.068Z,6.90
2022-10-17T10:52:49.326Z,6.65
2022-10-17T10:55:56.892Z,4.80
2022-10-17T10:59:08.624Z,6.40
2022-10-17T11:02:26.579Z,2.87
2022-10-17T11:06:11.189Z,5.30
2022-10-17T11:09:38.765Z,4.35
2022-10-17T11:13:06.702Z,3.72
2022-10-17T11:16:37.878Z,4.62
2022-10-17T11:19:58.856Z,8.25
2022-10-17T11:23:09.729Z,3.90
2022-10-17T11:26:27.011Z,3.58
2022-10-17T11:29:35.486Z,3.78
2022-10-17T11:32:43.983Z,3.12
2022-10-17T11:35:49.967Z,4.37
2022-10-17T11:39:14.003Z,11.20
2022-10-17T11:42:26.127Z,3.20
2022-10-17T11:45:35.992Z,9.43
2022-10-17T11:48:56.794Z,6.93
2022-10-17T11:52:37.682Z,3.95
2022-10-17T11:55:45.910Z,4.53
2022-10-17T11:59:06.283Z,4.75
2022-10-17T12:02:18.182Z,4.40
2022-10-17T12:05:44.537Z,4.45
2022-10-17T12:08:55.084Z,4.72
2022-10-17T12:12:02.563Z,6.10
2022-10-17T12:15:26.270Z,5.10
2022-10-17T12:18:31.109Z,4.00
2022-10-17T12:22:20.581Z,7.72
2022-10-17T12:25:30.168Z,2.90
2022-10-17T12:28:39.445Z,6.40
2022-10-17T12:31:42.737Z,3.15
2022-10-17T12:34:56.667Z,2.72
2022-10-17T12:38:18.644Z,3.33
2022-10-17T12:41:39.798Z,2.55
2022-10-17T12:44:44.823Z,2.85
2022-10-17T12:47:48.212Z,3.80
2022-10-17T12:51:17.523Z,5.10
2022-10-17T12:54:22.856Z,8.57
2022-10-17T12:57:50.336Z,3.30
2022-10-17T13:01:23.282Z,4.60
2022-10-17T13:04:21.585Z,2.78
2022-10-17T13:07:24.855Z,5.47
2022-10-17T13:10:32.325Z,2.42
2022-10-17T13:13:44.506Z,4.07
2022-10-17T13:17:07.748Z,3.58
2022-10-17T13:20:28.906Z,5.43
2022-10-17T13:23:38.195Z,3.33
2022-10-17T13:26:45.620Z,3.45
2022-10-17T13:29:48.685Z,2.67
2022-10-17T13:32:51.377Z,4.80
2022-10-17T13:36:01.657Z,3.20
2022-10-17T13:39:12.489Z,4.72
2022-10-17T13:42:24.732Z,3.25
2022-10-17T13:45:36.964Z,4.30
2022-10-17T13:48:40.028Z,2.70
2022-10-17T13:51:45.256Z,2.35
2022-10-17T13:54:53.680Z,3.42
2022-10-17T13:57:57.340Z,7.57
2022-10-17T14:01:00.352Z,2.25
2022-10-17T14:04:19.449Z,3.87
2022-10-17T14:07:41.610Z,5.93
2022-10-17T14:10:54.222Z,2.40
2022-10-17T14:13:58.002Z,11.12
2022-10-17T14:17:01.014Z,4.45
2022-10-17T14:20:34.001Z,2.10
2022-10-17T14:23:41.003Z,2.28
2022-10-17T14:26:58.947Z,4.47
2022-10-17T14:30:51.779Z,3.92
2022-10-17T14:33:51.901Z,2.80
2022-10-17T14:36:55.304Z,2.97
2022-10-17T14:40:03.015Z,5.22
2022-10-17T14:43:07.088Z,2.60
2022-10-17T14:46:16.713Z,3.22
2022-10-17T14:49:40.724Z,3.25
2022-10-17T14:53:01.503Z,1.92
2022-10-17T14:56:20.860Z,3.50
2022-10-17T14:59:52.148Z,2.80
2022-10-17T15:02:49.545Z,4.00
2022-10-17T15:05:53.377Z,4.53
2022-10-17T15:08:57.245Z,3.03
2022-10-17T15:12:04.559Z,2.72
2022-10-17T15:15:10.607Z,3.50
2022-10-17T15:18:14.791Z,3.45
2022-10-17T15:21:33.667Z,4.75
2022-10-17T15:24:40.997Z,5.15
2022-10-17T15:27:43.804Z,3.85
2022-10-17T15:33:50.142Z,2.15
2022-10-17T15:36:54.093Z,3.08
